sensor_id;sensor_type;location;lat;lon;timestamp;temperature;humidity
19870;DHT22;10097;50.862;4.696;2023-02-28T00:00:47;2.00;99.90
19870;DHT22;10097;50.862;4.696;2023-02-28T00:03:12;1.90;99.90
19870;DHT22;10097;50.862;4.696;2023-02-28T00:05:38;1.90;99.90
19870;DHT22;10097;50.862;4.696;2023-02-28T00:08:04;1.90;99.90
19870;DHT22;10097;50.862;4.696;2023-02-28T00:10:30;1.90;99.90
19870;DHT22;10097;50.862;4.696;2023-02-28T00:13:04;1.90;99.90
19870;DHT22;10097;50.862;4.696;2023-02-28T00:15:30;1.80;99.90
19870;DHT22;10097;50.862;4.696;2023-02-28T00:17:56;1.80;99.90
19870;DHT22;10097;50.862;4.696;2023-02-28T00:20:22;1.90;99.90
19870;DHT22;10097;50.862;4.696;2023-02-28T00:22:51;1.90;99.90
19870;DHT22;10097;50.862;4.696;2023-02-28T00:25:19;1.90;99.90
19870;DHT22;10097;50.862;4.696;2023-02-28T00:27:46;1.90;99.90
19870;DHT22;10097;50.862;4.696;2023-02-28T00:30:14;1.90;99.90
19870;DHT22;10097;50.862;4.696;2023-02-28T00:32:40;1.90;99.90
19870;DHT22;10097;50.862;4.696;2023-02-28T00:35:07;1.90;99.90
19870;DHT22;10097;50.862;4.696;2023-02-28T00:37:34;1.80;99.90
19870;DHT22;10097;50.862;4.696;2023-02-28T00:40:00;1.90;99.90
19870;DHT22;10097;50.862;4.696;2023-02-28T00:42:26;1.80;99.90
19870;DHT22;10097;50.862;4.696;2023-02-28T00:44:51;1.80;99.90
19870;DHT22;10097;50.862;4.696;2023-02-28T00:47:17;1.80;99.90
19870;DHT22;10097;50.862;4.696;2023-02-28T00:49:43;1.80;99.90
19870;DHT22;10097;50.862;4.696;2023-02-28T00:52:09;1.70;99.90
19870;DHT22;10097;50.862;4.696;2023-02-28T00:54:34;1.70;99.90
19870;DHT22;10097;50.862;4.696;2023-02-28T00:57:00;1.70;99.90
19870;DHT22;10097;50.862;4.696;2023-02-28T00:59:26;1.70;99.90
19870;DHT22;10097;50.862;4.696;2023-02-28T01:01:51;1.60;99.90
19870;DHT22;10097;50.862;4.696;2023-02-28T01:04:17;1.60;99.90
19870;DHT22;10097;50.862;4.696;2023-02-28T01:06:43;1.70;99.90
19870;DHT22;10097;50.862;4.696;2023-02-28T01:09:09;1.70;99.90
19870;DHT22;10097;50.862;4.696;2023-02-28T01:11:35;1.60;99.90
19870;DHT22;10097;50.862;4.696;2023-02-28T01:14:01;1.60;99.90
19870;DHT22;10097;50.862;4.696;2023-02-28T01:16:27;1.70;99.90
19870;DHT22;10097;50.862;4.696;2023-02-28T01:18:53;1.70;99.90
19870;DHT22;10097;50.862;4.696;2023-02-28T01:21:20;1.60;99.90
19870;DHT22;10097;50.862;4.696;2023-02-28T01:23:47;1.60;99.90
19870;DHT22;10097;50.862;4.696;2023-02-28T01:26:14;1.50;99.90
19870;DHT22;10097;50.862;4.696;2023-02-28T01:28:40;1.40;99.90
19870;DHT22;10097;50.862;4.696;2023-02-28T01:31:06;1.40;99.90
19870;DHT22;10097;50.862;4.696;2023-02-28T01:33:33;1.40;99.90
19870;DHT22;10097;50.862;4.696;2023-02-28T01:36:08;1.30;99.90
19870;DHT22;10097;50.862;4.696;2023-02-28T01:38:35;1.30;99.90
19870;DHT22;10097;50.862;4.696;2023-02-28T01:41:01;1.40;99.90
19870;DHT22;10097;50.862;4.696;2023-02-28T01:43:54;1.40;99.90
19870;DHT22;10097;50.862;4.696;2023-02-28T01:46:20;1.40;99.90
19870;DHT22;10097;50.862;4.696;2023-02-28T01:48:50;1.40;99.90
19870;DHT22;10097;50.862;4.696;2023-02-28T01:51:38;1.40;99.90
19870;DHT22;10097;50.862;4.696;2023-02-28T01:54:12;1.40;99.90
19870;DHT22;10097;50.862;4.696;2023-02-28T01:56:47;1.40;99.90
19870;DHT22;10097;50.862;4.696;2023-02-28T01:59:20;1.40;99.90
19870;DHT22;10097;50.862;4.696;2023-02-28T02:01:47;1.30;99.90
19870;DHT22;10097;50.862;4.696;2023-02-28T02:04:13;1.30;99.90
19870;DHT22;10097;50.862;4.696;2023-02-28T02:06:44;1.20;99.90
19870;DHT22;10097;50.862;4.696;2023-02-28T02:09:12;1.30;99.90
19870;DHT22;10097;50.862;4.696;2023-02-28T02:11:40;1.30;99.90
19870;DHT22;10097;50.862;4.696;2023-02-28T02:14:24;1.20;99.90
19870;DHT22;10097;50.862;4.696;2023-02-28T02:30:59;1.10;99.90
19870;DHT22;10097;50.862;4.696;2023-02-28T02:36:31;1.20;99.90
19870;DHT22;10097;50.862;4.696;2023-02-28T02:39:02;1.20;99.90
19870;DHT22;10097;50.862;4.696;2023-02-28T02:44:20;1.00;99.90
19870;DHT22;10097;50.862;4.696;2023-02-28T02:46:48;1.10;99.90
19870;DHT22;10097;50.862;4.696;2023-02-28T02:49:28;1.10;99.90
19870;DHT22;10097;50.862;4.696;2023-02-28T02:51:57;1.10;99.90
19870;DHT22;10097;50.862;4.696;2023-02-28T02:54:28;1.10;99.90
19870;DHT22;10097;50.862;4.696;2023-02-28T02:56:57;1.10;99.90
19870;DHT22;10097;50.862;4.696;2023-02-28T02:59:24;1.10;99.90
19870;DHT22;10097;50.862;4.696;2023-02-28T03:01:54;1.00;99.90
19870;DHT22;10097;50.862;4.696;2023-02-28T03:04:22;1.00;99.90
19870;DHT22;10097;50.862;4.696;2023-02-28T03:06:50;1.00;99.90
19870;DHT22;10097;50.862;4.696;2023-02-28T03:09:23;1.00;99.90
19870;DHT22;10097;50.862;4.696;2023-02-28T03:11:51;1.00;99.90
19870;DHT22;10097;50.862;4.696;2023-02-28T03:25:29;0.90;99.90
19870;DHT22;10097;50.862;4.696;2023-02-28T03:28:09;0.90;99.90
19870;DHT22;10097;50.862;4.696;2023-02-28T03:30:49;0.90;99.90
19870;DHT22;10097;50.862;4.696;2023-02-28T03:33:32;0.80;99.90
19870;DHT22;10097;50.862;4.696;2023-02-28T03:36:09;0.80;99.90
19870;DHT22;10097;50.862;4.696;2023-02-28T03:39:03;0.80;99.90
19870;DHT22;10097;50.862;4.696;2023-02-28T03:44:14;0.70;99.90
19870;DHT22;10097;50.862;4.696;2023-02-28T03:46:49;0.70;99.90
19870;DHT22;10097;50.862;4.696;2023-02-28T03:49:27;0.60;99.90
19870;DHT22;10097;50.862;4.696;2023-02-28T03:51:56;0.60;99.90
19870;DHT22;10097;50.862;4.696;2023-02-28T03:54:27;0.60;99.90
19870;DHT22;10097;50.862;4.696;2023-02-28T03:57:03;0.60;99.90
19870;DHT22;10097;50.862;4.696;2023-02-28T03:59:36;0.60;99.90
19870;DHT22;10097;50.862;4.696;2023-02-28T04:02:03;0.60;99.90
19870;DHT22;10097;50.862;4.696;2023-02-28T04:04:29;0.60;99.90
19870;DHT22;10097;50.862;4.696;2023-02-28T04:07:05;0.60;99.90
19870;DHT22;10097;50.862;4.696;2023-02-28T04:09:31;0.60;99.90
19870;DHT22;10097;50.862;4.696;2023-02-28T04:11:57;0.60;99.90
19870;DHT22;10097;50.862;4.696;2023-02-28T04:14:22;0.70;99.90
19870;DHT22;10097;50.862;4.696;2023-02-28T04:16:48;0.80;99.90
19870;DHT22;10097;50.862;4.696;2023-02-28T04:19:14;0.80;99.90
19870;DHT22;10097;50.862;4.696;2023-02-28T04:21:48;0.80;99.90
19870;DHT22;10097;50.862;4.696;2023-02-28T04:24:17;0.90;99.90
19870;DHT22;10097;50.862;4.696;2023-02-28T04:26:46;1.00;99.90
19870;DHT22;10097;50.862;4.696;2023-02-28T04:29:19;1.00;99.90
19870;DHT22;10097;50.862;4.696;2023-02-28T04:31:45;1.00;99.90
19870;DHT22;10097;50.862;4.696;2023-02-28T04:34:10;1.00;99.90
19870;DHT22;10097;50.862;4.696;2023-02-28T04:36:36;1.10;99.90
19870;DHT22;10097;50.862;4.696;2023-02-28T04:39:02;1.20;99.90
19870;DHT22;10097;50.862;4.696;2023-02-28T04:41:29;1.10;99.90
19870;DHT22;10097;50.862;4.696;2023-02-28T04:43:55;1.10;99.90
19870;DHT22;10097;50.862;4.696;2023-02-28T04:46:22;1.20;99.90
19870;DHT22;10097;50.862;4.696;2023-02-28T04:48:47;1.10;99.90
19870;DHT22;10097;50.862;4.696;2023-02-28T04:51:15;1.10;99.90
19870;DHT22;10097;50.862;4.696;2023-02-28T04:53:42;1.00;99.90
19870;DHT22;10097;50.862;4.696;2023-02-28T04:56:11;1.00;99.90
19870;DHT22;10097;50.862;4.696;2023-02-28T04:58:37;1.00;99.90
19870;DHT22;10097;50.862;4.696;2023-02-28T05:01:05;0.90;99.90
19870;DHT22;10097;50.862;4.696;2023-02-28T05:03:41;0.90;99.90
19870;DHT22;10097;50.862;4.696;2023-02-28T05:06:11;0.90;99.90
19870;DHT22;10097;50.862;4.696;2023-02-28T05:08:37;1.00;99.90
19870;DHT22;10097;50.862;4.696;2023-02-28T05:11:05;1.00;99.90
19870;DHT22;10097;50.862;4.696;2023-02-28T05:13:31;1.10;99.90
19870;DHT22;10097;50.862;4.696;2023-02-28T05:15:57;1.20;99.90
19870;DHT22;10097;50.862;4.696;2023-02-28T05:18:22;1.20;99.90
19870;DHT22;10097;50.862;4.696;2023-02-28T05:20:48;1.30;99.90
19870;DHT22;10097;50.862;4.696;2023-02-28T05:23:14;1.30;99.90
19870;DHT22;10097;50.862;4.696;2023-02-28T05:25:40;1.40;99.90
19870;DHT22;10097;50.862;4.696;2023-02-28T05:28:06;1.40;99.90
19870;DHT22;10097;50.862;4.696;2023-02-28T05:30:32;1.50;99.90
19870;DHT22;10097;50.862;4.696;2023-02-28T05:32:58;1.40;99.90
19870;DHT22;10097;50.862;4.696;2023-02-28T05:35:24;1.30;99.90
19870;DHT22;10097;50.862;4.696;2023-02-28T05:37:50;1.30;99.90
19870;DHT22;10097;50.862;4.696;2023-02-28T05:40:16;1.30;99.90
19870;DHT22;10097;50.862;4.696;2023-02-28T05:42:42;1.40;99.90
19870;DHT22;10097;50.862;4.696;2023-02-28T05:45:09;1.40;99.90
19870;DHT22;10097;50.862;4.696;2023-02-28T05:47:35;1.40;99.90
19870;DHT22;10097;50.862;4.696;2023-02-28T05:50:01;1.30;99.90
19870;DHT22;10097;50.862;4.696;2023-02-28T05:52:27;1.20;99.90
19870;DHT22;10097;50.862;4.696;2023-02-28T05:54:53;1.20;99.90
19870;DHT22;10097;50.862;4.696;2023-02-28T05:57:19;1.30;99.90
19870;DHT22;10097;50.862;4.696;2023-02-28T05:59:44;1.30;99.90
19870;DHT22;10097;50.862;4.696;2023-02-28T06:02:15;1.30;99.90
19870;DHT22;10097;50.862;4.696;2023-02-28T06:04:42;1.40;99.90
19870;DHT22;10097;50.862;4.696;2023-02-28T06:07:08;1.40;99.90
19870;DHT22;10097;50.862;4.696;2023-02-28T06:09:34;1.40;99.90
19870;DHT22;10097;50.862;4.696;2023-02-28T06:12:00;1.40;99.90
19870;DHT22;10097;50.862;4.696;2023-02-28T06:14:29;1.40;99.90
19870;DHT22;10097;50.862;4.696;2023-02-28T06:16:56;1.40;99.90
19870;DHT22;10097;50.862;4.696;2023-02-28T06:19:22;1.30;99.90
19870;DHT22;10097;50.862;4.696;2023-02-28T06:21:51;1.30;99.90
19870;DHT22;10097;50.862;4.696;2023-02-28T06:24:19;1.30;99.90
19870;DHT22;10097;50.862;4.696;2023-02-28T06:26:45;1.20;99.90
19870;DHT22;10097;50.862;4.696;2023-02-28T06:29:10;1.10;99.90
19870;DHT22;10097;50.862;4.696;2023-02-28T06:31:37;1.00;99.90
19870;DHT22;10097;50.862;4.696;2023-02-28T06:34:04;1.10;99.90
19870;DHT22;10097;50.862;4.696;2023-02-28T06:36:30;1.10;99.90
19870;DHT22;10097;50.862;4.696;2023-02-28T06:38:56;1.00;99.90
19870;DHT22;10097;50.862;4.696;2023-02-28T06:41:26;0.90;99.90
19870;DHT22;10097;50.862;4.696;2023-02-28T06:43:52;0.90;99.90
19870;DHT22;10097;50.862;4.696;2023-02-28T06:46:18;0.90;99.90
19870;DHT22;10097;50.862;4.696;2023-02-28T06:48:44;0.90;99.90
19870;DHT22;10097;50.862;4.696;2023-02-28T06:51:12;0.90;99.90
19870;DHT22;10097;50.862;4.696;2023-02-28T06:53:39;0.90;99.90
19870;DHT22;10097;50.862;4.696;2023-02-28T06:56:07;0.90;99.90
19870;DHT22;10097;50.862;4.696;2023-02-28T06:58:34;1.00;99.90
19870;DHT22;10097;50.862;4.696;2023-02-28T07:01:00;1.00;99.90
19870;DHT22;10097;50.862;4.696;2023-02-28T07:03:26;0.90;99.90
19870;DHT22;10097;50.862;4.696;2023-02-28T07:05:51;0.90;99.90
19870;DHT22;10097;50.862;4.696;2023-02-28T07:08:17;0.80;99.90
19870;DHT22;10097;50.862;4.696;2023-02-28T07:10:43;0.70;99.90
19870;DHT22;10097;50.862;4.696;2023-02-28T07:13:09;0.80;99.90
19870;DHT22;10097;50.862;4.696;2023-02-28T07:15:38;0.80;99.90
19870;DHT22;10097;50.862;4.696;2023-02-28T07:18:04;0.70;99.90
19870;DHT22;10097;50.862;4.696;2023-02-28T07:20:30;0.70;99.90
19870;DHT22;10097;50.862;4.696;2023-02-28T07:22:55;0.80;99.90
19870;DHT22;10097;50.862;4.696;2023-02-28T07:25:28;0.80;99.90
19870;DHT22;10097;50.862;4.696;2023-02-28T07:27:55;0.80;99.90
19870;DHT22;10097;50.862;4.696;2023-02-28T07:30:21;0.90;99.90
19870;DHT22;10097;50.862;4.696;2023-02-28T07:32:47;0.90;99.90
19870;DHT22;10097;50.862;4.696;2023-02-28T07:35:13;0.90;99.90
19870;DHT22;10097;50.862;4.696;2023-02-28T07:37:41;0.90;99.90
19870;DHT22;10097;50.862;4.696;2023-02-28T07:40:09;0.90;99.90
19870;DHT22;10097;50.862;4.696;2023-02-28T07:42:37;1.00;99.90
19870;DHT22;10097;50.862;4.696;2023-02-28T07:45:05;1.00;99.90
19870;DHT22;10097;50.862;4.696;2023-02-28T07:47:31;0.90;99.90
19870;DHT22;10097;50.862;4.696;2023-02-28T07:49:57;1.00;99.90
19870;DHT22;10097;50.862;4.696;2023-02-28T07:52:23;1.00;99.90
19870;DHT22;10097;50.862;4.696;2023-02-28T07:54:50;1.10;99.90
19870;DHT22;10097;50.862;4.696;2023-02-28T07:57:16;1.20;99.90
19870;DHT22;10097;50.862;4.696;2023-02-28T07:59:42;1.30;99.90
19870;DHT22;10097;50.862;4.696;2023-02-28T08:02:18;1.40;99.90
19870;DHT22;10097;50.862;4.696;2023-02-28T08:04:44;1.60;99.90
19870;DHT22;10097;50.862;4.696;2023-02-28T08:07:12;1.70;99.90
19870;DHT22;10097;50.862;4.696;2023-02-28T08:09:39;1.70;99.90
19870;DHT22;10097;50.862;4.696;2023-02-28T08:12:06;1.70;99.90
19870;DHT22;10097;50.862;4.696;2023-02-28T08:14:32;1.60;99.90
19870;DHT22;10097;50.862;4.696;2023-02-28T08:16:58;1.70;99.90
19870;DHT22;10097;50.862;4.696;2023-02-28T08:19:23;1.60;99.90
19870;DHT22;10097;50.862;4.696;2023-02-28T08:21:49;1.60;99.90
19870;DHT22;10097;50.862;4.696;2023-02-28T08:24:15;1.60;99.90
19870;DHT22;10097;50.862;4.696;2023-02-28T08:26:40;1.60;99.90
19870;DHT22;10097;50.862;4.696;2023-02-28T08:29:06;1.80;99.90
19870;DHT22;10097;50.862;4.696;2023-02-28T08:31:31;1.90;99.90
19870;DHT22;10097;50.862;4.696;2023-02-28T08:33:57;1.90;99.90
19870;DHT22;10097;50.862;4.696;2023-02-28T08:36:25;1.90;99.90
19870;DHT22;10097;50.862;4.696;2023-02-28T08:38:51;1.90;99.90
19870;DHT22;10097;50.862;4.696;2023-02-28T08:41:17;1.80;99.90
19870;DHT22;10097;50.862;4.696;2023-02-28T08:43:43;1.80;99.90
19870;DHT22;10097;50.862;4.696;2023-02-28T08:46:12;1.80;99.90
19870;DHT22;10097;50.862;4.696;2023-02-28T08:48:38;1.80;99.90
19870;DHT22;10097;50.862;4.696;2023-02-28T08:51:16;1.90;99.90
19870;DHT22;10097;50.862;4.696;2023-02-28T08:53:44;2.10;99.90
19870;DHT22;10097;50.862;4.696;2023-02-28T08:56:12;2.20;99.90
19870;DHT22;10097;50.862;4.696;2023-02-28T08:58:38;2.30;99.90
19870;DHT22;10097;50.862;4.696;2023-02-28T09:01:12;2.30;99.90
19870;DHT22;10097;50.862;4.696;2023-02-28T09:03:39;2.30;99.90
19870;DHT22;10097;50.862;4.696;2023-02-28T09:06:06;2.40;99.90
19870;DHT22;10097;50.862;4.696;2023-02-28T09:08:32;2.40;99.90
19870;DHT22;10097;50.862;4.696;2023-02-28T09:10:58;2.40;99.90
19870;DHT22;10097;50.862;4.696;2023-02-28T09:13:25;2.40;99.90
19870;DHT22;10097;50.862;4.696;2023-02-28T09:15:51;2.50;99.90
19870;DHT22;10097;50.862;4.696;2023-02-28T09:18:17;2.70;99.90
19870;DHT22;10097;50.862;4.696;2023-02-28T09:20:43;2.70;99.90
19870;DHT22;10097;50.862;4.696;2023-02-28T09:23:10;2.80;99.90
19870;DHT22;10097;50.862;4.696;2023-02-28T09:25:36;2.80;99.90
19870;DHT22;10097;50.862;4.696;2023-02-28T09:28:02;2.80;99.90
19870;DHT22;10097;50.862;4.696;2023-02-28T09:30:29;2.70;99.90
19870;DHT22;10097;50.862;4.696;2023-02-28T09:32:55;2.80;99.90
19870;DHT22;10097;50.862;4.696;2023-02-28T09:35:22;2.80;99.90
19870;DHT22;10097;50.862;4.696;2023-02-28T09:37:51;2.90;99.90
19870;DHT22;10097;50.862;4.696;2023-02-28T09:40:22;2.90;99.90
19870;DHT22;10097;50.862;4.696;2023-02-28T09:42:51;3.10;99.90
19870;DHT22;10097;50.862;4.696;2023-02-28T09:45:31;3.30;99.90
19870;DHT22;10097;50.862;4.696;2023-02-28T09:48:16;3.20;99.90
19870;DHT22;10097;50.862;4.696;2023-02-28T09:50:49;3.30;99.90
19870;DHT22;10097;50.862;4.696;2023-02-28T09:53:36;3.40;99.90
19870;DHT22;10097;50.862;4.696;2023-02-28T09:56:08;3.60;99.90
19870;DHT22;10097;50.862;4.696;2023-02-28T09:58:55;3.80;99.90
19870;DHT22;10097;50.862;4.696;2023-02-28T10:04:14;3.80;99.90
19870;DHT22;10097;50.862;4.696;2023-02-28T10:06:51;3.80;99.90
19870;DHT22;10097;50.862;4.696;2023-02-28T10:09:25;3.80;99.90
19870;DHT22;10097;50.862;4.696;2023-02-28T10:11:55;4.00;99.90
19870;DHT22;10097;50.862;4.696;2023-02-28T10:14:24;4.10;99.90
19870;DHT22;10097;50.862;4.696;2023-02-28T10:16:55;4.20;99.90
19870;DHT22;10097;50.862;4.696;2023-02-28T10:22:16;4.30;99.90
19870;DHT22;10097;50.862;4.696;2023-02-28T10:24:45;4.30;99.90
19870;DHT22;10097;50.862;4.696;2023-02-28T10:27:17;4.40;99.90
19870;DHT22;10097;50.862;4.696;2023-02-28T10:29:52;4.40;99.90
19870;DHT22;10097;50.862;4.696;2023-02-28T10:32:21;4.20;99.90
19870;DHT22;10097;50.862;4.696;2023-02-28T10:37:38;4.20;99.90
19870;DHT22;10097;50.862;4.696;2023-02-28T10:40:05;4.20;99.90
19870;DHT22;10097;50.862;4.696;2023-02-28T10:42:32;4.30;99.90
19870;DHT22;10097;50.862;4.696;2023-02-28T10:45:11;4.40;99.90
19870;DHT22;10097;50.862;4.696;2023-02-28T10:58:23;5.20;99.90
19870;DHT22;10097;50.862;4.696;2023-02-28T11:00:50;5.10;99.90
19870;DHT22;10097;50.862;4.696;2023-02-28T11:03:33;5.10;99.90
19870;DHT22;10097;50.862;4.696;2023-02-28T11:06:06;5.20;99.90
19870;DHT22;10097;50.862;4.696;2023-02-28T11:08:32;5.20;99.90
19870;DHT22;10097;50.862;4.696;2023-02-28T11:11:01;5.30;99.90
19870;DHT22;10097;50.862;4.696;2023-02-28T11:13:32;5.60;99.90
19870;DHT22;10097;50.862;4.696;2023-02-28T11:16:02;6.00;99.90
19870;DHT22;10097;50.862;4.696;2023-02-28T11:21:21;6.30;99.90
19870;DHT22;10097;50.862;4.696;2023-02-28T11:23:50;6.40;99.90
19870;DHT22;10097;50.862;4.696;2023-02-28T11:26:16;6.60;99.90
19870;DHT22;10097;50.862;4.696;2023-02-28T11:29:24;6.70;99.90
19870;DHT22;10097;50.862;4.696;2023-02-28T11:32:18;6.70;99.90
19870;DHT22;10097;50.862;4.696;2023-02-28T11:34:45;6.60;99.90
19870;DHT22;10097;50.862;4.696;2023-02-28T11:37:14;6.40;99.90
19870;DHT22;10097;50.862;4.696;2023-02-28T11:39:41;6.40;99.90
19870;DHT22;10097;50.862;4.696;2023-02-28T11:43:01;6.30;99.90
19870;DHT22;10097;50.862;4.696;2023-02-28T11:48:19;6.20;99.90
19870;DHT22;10097;50.862;4.696;2023-02-28T11:50:57;6.30;99.90
19870;DHT22;10097;50.862;4.696;2023-02-28T11:56:08;6.50;99.90
19870;DHT22;10097;50.862;4.696;2023-02-28T12:01:28;6.30;99.90
19870;DHT22;10097;50.862;4.696;2023-02-28T12:04:25;6.20;99.90
19870;DHT22;10097;50.862;4.696;2023-02-28T12:07:46;6.20;99.90
19870;DHT22;10097;50.862;4.696;2023-02-28T12:10:23;6.50;99.90
19870;DHT22;10097;50.862;4.696;2023-02-28T12:13:12;6.70;99.90
19870;DHT22;10097;50.862;4.696;2023-02-28T12:20:57;6.40;99.90
19870;DHT22;10097;50.862;4.696;2023-02-28T12:26:29;6.80;99.90
19870;DHT22;10097;50.862;4.696;2023-02-28T12:29:12;7.40;99.90
19870;DHT22;10097;50.862;4.696;2023-02-28T12:31:45;7.80;99.90
19870;DHT22;10097;50.862;4.696;2023-02-28T12:34:22;7.90;99.90
19870;DHT22;10097;50.862;4.696;2023-02-28T12:36:52;8.00;99.90
19870;DHT22;10097;50.862;4.696;2023-02-28T12:39:25;7.90;99.90
19870;DHT22;10097;50.862;4.696;2023-02-28T12:42:00;8.00;99.90
19870;DHT22;10097;50.862;4.696;2023-02-28T12:47:03;8.10;99.90
19870;DHT22;10097;50.862;4.696;2023-02-28T12:49:41;8.00;99.90
19870;DHT22;10097;50.862;4.696;2023-02-28T12:52:08;8.10;99.90
19870;DHT22;10097;50.862;4.696;2023-02-28T12:54:45;8.00;99.90
19870;DHT22;10097;50.862;4.696;2023-02-28T12:57:34;7.80;99.90
19870;DHT22;10097;50.862;4.696;2023-02-28T13:00:23;8.00;99.90
19870;DHT22;10097;50.862;4.696;2023-02-28T13:03:42;8.20;99.90
19870;DHT22;10097;50.862;4.696;2023-02-28T13:11:42;8.60;99.90
19870;DHT22;10097;50.862;4.696;2023-02-28T13:17:09;8.50;99.90
19870;DHT22;10097;50.862;4.696;2023-02-28T13:19:56;8.60;99.90
19870;DHT22;10097;50.862;4.696;2023-02-28T13:24:57;8.70;99.90
19870;DHT22;10097;50.862;4.696;2023-02-28T13:27:35;8.60;99.90
19870;DHT22;10097;50.862;4.696;2023-02-28T13:38:43;8.30;99.90
19870;DHT22;10097;50.862;4.696;2023-02-28T13:49:33;8.90;99.90
19870;DHT22;10097;50.862;4.696;2023-02-28T13:52:16;9.00;99.90
19870;DHT22;10097;50.862;4.696;2023-02-28T13:55:16;9.00;99.90
19870;DHT22;10097;50.862;4.696;2023-02-28T14:08:34;8.60;99.90
19870;DHT22;10097;50.862;4.696;2023-02-28T14:11:15;8.30;99.90
19870;DHT22;10097;50.862;4.696;2023-02-28T14:13:48;8.40;99.90
19870;DHT22;10097;50.862;4.696;2023-02-28T14:16:24;8.40;99.90
19870;DHT22;10097;50.862;4.696;2023-02-28T14:19:24;8.60;99.90
19870;DHT22;10097;50.862;4.696;2023-02-28T14:27:37;8.60;99.90
19870;DHT22;10097;50.862;4.696;2023-02-28T14:33:31;8.80;99.90
19870;DHT22;10097;50.862;4.696;2023-02-28T14:36:22;9.10;99.90
19870;DHT22;10097;50.862;4.696;2023-02-28T14:38:52;9.40;99.90
19870;DHT22;10097;50.862;4.696;2023-02-28T14:41:33;9.40;99.90
19870;DHT22;10097;50.862;4.696;2023-02-28T14:44:17;9.60;99.90
19870;DHT22;10097;50.862;4.696;2023-02-28T14:46:45;9.60;99.90
19870;DHT22;10097;50.862;4.696;2023-02-28T14:49:29;9.60;99.90
19870;DHT22;10097;50.862;4.696;2023-02-28T14:52:17;9.50;99.90
19870;DHT22;10097;50.862;4.696;2023-02-28T14:54:43;9.60;99.90
19870;DHT22;10097;50.862;4.696;2023-02-28T14:57:23;9.70;99.90
19870;DHT22;10097;50.862;4.696;2023-02-28T15:00:30;9.50;99.90
19870;DHT22;10097;50.862;4.696;2023-02-28T15:02:49;9.60;99.90
19870;DHT22;10097;50.862;4.696;2023-02-28T15:05:19;9.00;99.90
19870;DHT22;10097;50.862;4.696;2023-02-28T15:07:46;9.10;99.90
19870;DHT22;10097;50.862;4.696;2023-02-28T15:10:23;9.60;99.90
19870;DHT22;10097;50.862;4.696;2023-02-28T15:13:07;9.60;99.90
19870;DHT22;10097;50.862;4.696;2023-02-28T15:15:45;9.40;99.90
19870;DHT22;10097;50.862;4.696;2023-02-28T15:18:30;9.60;99.90
19870;DHT22;10097;50.862;4.696;2023-02-28T15:21:04;9.50;99.90
19870;DHT22;10097;50.862;4.696;2023-02-28T15:23:35;9.50;99.90
19870;DHT22;10097;50.862;4.696;2023-02-28T15:26:02;9.40;99.90
19870;DHT22;10097;50.862;4.696;2023-02-28T15:28:29;9.30;99.90
19870;DHT22;10097;50.862;4.696;2023-02-28T15:31:01;9.10;99.90
19870;DHT22;10097;50.862;4.696;2023-02-28T15:33:30;8.70;99.90
19870;DHT22;10097;50.862;4.696;2023-02-28T15:36:26;8.40;99.90
19870;DHT22;10097;50.862;4.696;2023-02-28T15:38:54;8.40;99.90
19870;DHT22;10097;50.862;4.696;2023-02-28T15:44:15;8.20;99.90
19870;DHT22;10097;50.862;4.696;2023-02-28T15:47:06;8.00;99.90
19870;DHT22;10097;50.862;4.696;2023-02-28T15:49:45;8.10;99.90
19870;DHT22;10097;50.862;4.696;2023-02-28T15:52:21;8.20;99.90
19870;DHT22;10097;50.862;4.696;2023-02-28T15:54:49;8.20;99.90
19870;DHT22;10097;50.862;4.696;2023-02-28T15:57:20;8.00;99.90
19870;DHT22;10097;50.862;4.696;2023-02-28T15:59:54;7.80;99.90
19870;DHT22;10097;50.862;4.696;2023-02-28T16:02:37;7.70;99.90
19870;DHT22;10097;50.862;4.696;2023-02-28T16:07:33;7.40;99.90
19870;DHT22;10097;50.862;4.696;2023-02-28T16:10:00;7.20;99.90
19870;DHT22;10097;50.862;4.696;2023-02-28T16:12:28;7.30;99.90
19870;DHT22;10097;50.862;4.696;2023-02-28T16:14:57;7.20;99.90
19870;DHT22;10097;50.862;4.696;2023-02-28T16:17:25;7.00;99.90
19870;DHT22;10097;50.862;4.696;2023-02-28T16:19:52;7.10;99.90
19870;DHT22;10097;50.862;4.696;2023-02-28T16:22:18;7.00;99.90
19870;DHT22;10097;50.862;4.696;2023-02-28T16:24:44;6.80;99.90
19870;DHT22;10097;50.862;4.696;2023-02-28T16:27:30;6.60;99.90
19870;DHT22;10097;50.862;4.696;2023-02-28T16:29:56;6.50;99.90
19870;DHT22;10097;50.862;4.696;2023-02-28T16:32:22;6.60;99.90
19870;DHT22;10097;50.862;4.696;2023-02-28T16:34:48;6.60;99.90
19870;DHT22;10097;50.862;4.696;2023-02-28T16:37:16;6.50;99.90
19870;DHT22;10097;50.862;4.696;2023-02-28T16:39:45;6.40;99.90
19870;DHT22;10097;50.862;4.696;2023-02-28T16:42:16;6.40;99.90
19870;DHT22;10097;50.862;4.696;2023-02-28T16:44:43;6.40;99.90
19870;DHT22;10097;50.862;4.696;2023-02-28T16:47:10;6.30;99.90
19870;DHT22;10097;50.862;4.696;2023-02-28T16:49:38;6.00;99.90
19870;DHT22;10097;50.862;4.696;2023-02-28T16:52:04;5.80;99.90
19870;DHT22;10097;50.862;4.696;2023-02-28T16:54:31;5.90;99.90
19870;DHT22;10097;50.862;4.696;2023-02-28T16:56:57;5.90;99.90
19870;DHT22;10097;50.862;4.696;2023-02-28T16:59:23;5.70;99.90
19870;DHT22;10097;50.862;4.696;2023-02-28T17:01:50;5.70;99.90
19870;DHT22;10097;50.862;4.696;2023-02-28T17:04:17;5.70;99.90
19870;DHT22;10097;50.862;4.696;2023-02-28T17:06:43;5.50;99.90
19870;DHT22;10097;50.862;4.696;2023-02-28T17:09:21;5.40;99.90
19870;DHT22;10097;50.862;4.696;2023-02-28T17:11:47;5.30;99.90
19870;DHT22;10097;50.862;4.696;2023-02-28T17:14:14;5.20;99.90
19870;DHT22;10097;50.862;4.696;2023-02-28T17:16:41;5.10;99.90
19870;DHT22;10097;50.862;4.696;2023-02-28T17:19:12;5.10;99.90
19870;DHT22;10097;50.862;4.696;2023-02-28T17:21:38;5.10;99.90
19870;DHT22;10097;50.862;4.696;2023-02-28T17:24:04;5.10;99.90
19870;DHT22;10097;50.862;4.696;2023-02-28T17:26:30;5.00;99.90
19870;DHT22;10097;50.862;4.696;2023-02-28T17:28:56;4.90;99.90
19870;DHT22;10097;50.862;4.696;2023-02-28T17:31:23;4.90;99.90
19870;DHT22;10097;50.862;4.696;2023-02-28T17:33:49;4.80;99.90
19870;DHT22;10097;50.862;4.696;2023-02-28T17:36:24;4.70;99.90
19870;DHT22;10097;50.862;4.696;2023-02-28T17:38:52;4.60;99.90
19870;DHT22;10097;50.862;4.696;2023-02-28T17:41:18;4.60;99.90
19870;DHT22;10097;50.862;4.696;2023-02-28T17:43:44;4.60;99.90
19870;DHT22;10097;50.862;4.696;2023-02-28T17:46:21;4.60;99.90
19870;DHT22;10097;50.862;4.696;2023-02-28T17:48:48;4.60;99.90
19870;DHT22;10097;50.862;4.696;2023-02-28T17:51:15;4.60;99.90
19870;DHT22;10097;50.862;4.696;2023-02-28T17:53:41;4.60;99.90
19870;DHT22;10097;50.862;4.696;2023-02-28T17:56:18;4.50;99.90
19870;DHT22;10097;50.862;4.696;2023-02-28T17:58:44;4.40;99.90
19870;DHT22;10097;50.862;4.696;2023-02-28T18:01:09;4.40;99.90
19870;DHT22;10097;50.862;4.696;2023-02-28T18:03:38;4.30;99.90
19870;DHT22;10097;50.862;4.696;2023-02-28T18:06:04;4.40;99.90
19870;DHT22;10097;50.862;4.696;2023-02-28T18:08:30;4.40;99.90
19870;DHT22;10097;50.862;4.696;2023-02-28T18:10:56;4.40;99.90
19870;DHT22;10097;50.862;4.696;2023-02-28T18:13:22;4.40;99.90